Portada
METAR-TAF:

METAR-TAF

Aeroports :

Roi Et, Tailàndia

latitud: 16-07-00N, longitud: 103-46-26E, altitud: 138 m

Observació

L'informe es va fer fa 57 minuts, a les 02:00 UTC
Vent 4 kt del Sud-Oest, variant entre Sud/Sud-Oest i Oest
Temperatura 27°C
Humitat 84%
Pressió 1009 hPa
Visibilitat 10 km o més
Núvols disperses a una alçada de 1500 ft

METAR: VTUV 300200Z 23004KT 210V270 9999 SCT015 27/24 Q1009 NOSIG

Hora: 09:57 (02:57 UTC)

Pronòstic

L'informe es va fer fa 3 hores i 57 minuts, a les 23:00 UTC
Pronòstic vàlid del 30 a les 00 UTC al 30 a les 24 UTC
Vent 5 kt del Sud
Visibilitat 10 km o més
Núvols disperses a una alçada de 3000 ft
Temporalment
l' 30 a les 09 UTC al 30 a les 12 UTC
Vent 10 kt del Sud
Visibilitat: 4500 m
Núvols disperses a una alçada de 2000 ft
Cel ennuvolat a una alçada de 2500 ft
pluja

TAF: VTUV 292300Z 3000/3024 17005KT 9999 SCT030 TEMPO 3009/3012 19010KT 4500 RA SCT020 BKN025

Observacions i pronòstics meteorològics de més de 4000 aeroports (METAR i TAF).

Les estacions disponibles són els punts grocs i vermells al mapa.

Posi el ratolí al punt desitjat per veure el nom de l'estació.

Feu clic per veure les observacions i els pronòstics meteorològics.

Per canviar el mapa: feu clic els botons verds amb una creu de color negre per apropar; al botó verd amb un guió per allunyar la imatge; o en les fletxes verdes per a mapes adjacents.


METAR-TAF: